sensor_id;sensor_type;location;lat;lon;timestamp;pressure;altitude;pressure_sealevel;temperature;humidity
58739;BME280;44512;53.046;18.604;2023-08-21T00:02:42;102182.38;;;25.92;55.97
58739;BME280;44512;53.046;18.604;2023-08-21T00:13:11;102200.90;;;25.82;56.15
58739;BME280;44512;53.046;18.604;2023-08-21T00:23:39;102189.98;;;25.70;56.44
58739;BME280;44512;53.046;18.604;2023-08-21T00:34:07;102174.10;;;25.60;56.88
58739;BME280;44512;53.046;18.604;2023-08-21T00:44:36;102176.01;;;25.55;57.22
58739;BME280;44512;53.046;18.604;2023-08-21T00:55:05;102177.59;;;25.45;57.64
58739;BME280;44512;53.046;18.604;2023-08-21T01:05:34;102186.98;;;25.39;57.96
58739;BME280;44512;53.046;18.604;2023-08-21T01:16:03;102192.20;;;25.36;58.45
58739;BME280;44512;53.046;18.604;2023-08-21T01:26:29;102188.55;;;25.30;58.88
58739;BME280;44512;53.046;18.604;2023-08-21T01:36:57;102191.23;;;25.20;59.45
58739;BME280;44512;53.046;18.604;2023-08-21T01:47:26;102188.41;;;25.15;59.65
58739;BME280;44512;53.046;18.604;2023-08-21T01:57:54;102198.06;;;25.07;59.71
58739;BME280;44512;53.046;18.604;2023-08-21T02:08:22;102180.47;;;24.97;59.87
58739;BME280;44512;53.046;18.604;2023-08-21T02:18:51;102187.57;;;24.87;59.95
58739;BME280;44512;53.046;18.604;2023-08-21T02:29:19;102186.09;;;24.80;60.02
58739;BME280;44512;53.046;18.604;2023-08-21T02:39:47;102177.43;;;24.71;60.17
58739;BME280;44512;53.046;18.604;2023-08-21T02:50:16;102188.89;;;24.58;60.24
58739;BME280;44512;53.046;18.604;2023-08-21T03:00:44;102189.94;;;24.52;60.26
58739;BME280;44512;53.046;18.604;2023-08-21T03:11:12;102179.24;;;24.38;60.40
58739;BME280;44512;53.046;18.604;2023-08-21T03:21:41;102183.41;;;24.19;60.31
58739;BME280;44512;53.046;18.604;2023-08-21T03:32:09;102178.74;;;24.03;60.25
58739;BME280;44512;53.046;18.604;2023-08-21T03:42:37;102184.05;;;23.87;60.05
58739;BME280;44512;53.046;18.604;2023-08-21T03:53:06;102207.64;;;23.73;59.60
58739;BME280;44512;53.046;18.604;2023-08-21T04:03:34;102229.78;;;23.61;58.98
58739;BME280;44512;53.046;18.604;2023-08-21T04:14:02;102233.99;;;23.47;58.99
58739;BME280;44512;53.046;18.604;2023-08-21T04:24:31;102209.70;;;23.32;58.63
58739;BME280;44512;53.046;18.604;2023-08-21T04:34:59;102223.90;;;23.24;58.47
58739;BME280;44512;53.046;18.604;2023-08-21T04:45:27;102213.77;;;23.13;58.44
58739;BME280;44512;53.046;18.604;2023-08-21T04:55:58;102216.82;;;23.00;58.53
58739;BME280;44512;53.046;18.604;2023-08-21T05:06:24;102219.77;;;22.81;58.88
58739;BME280;44512;53.046;18.604;2023-08-21T05:16:52;102227.12;;;22.76;58.79
58739;BME280;44512;53.046;18.604;2023-08-21T05:27:21;102236.81;;;22.78;58.16
58739;BME280;44512;53.046;18.604;2023-08-21T05:37:49;102239.98;;;22.70;57.71
58739;BME280;44512;53.046;18.604;2023-08-21T05:48:17;102259.80;;;22.55;57.67
58739;BME280;44512;53.046;18.604;2023-08-21T05:58:46;102266.31;;;22.49;57.40
58739;BME280;44512;53.046;18.604;2023-08-21T06:09:14;102266.70;;;22.29;57.48
58739;BME280;44512;53.046;18.604;2023-08-21T06:19:42;102275.31;;;22.45;56.68
58739;BME280;44512;53.046;18.604;2023-08-21T06:30:12;102282.36;;;22.52;56.39
58739;BME280;44512;53.046;18.604;2023-08-21T06:40:39;102300.25;;;22.50;56.24
58739;BME280;44512;53.046;18.604;2023-08-21T06:51:08;102309.23;;;22.57;55.91
58739;BME280;44512;53.046;18.604;2023-08-21T07:01:36;102284.51;;;22.62;55.55
58739;BME280;44512;53.046;18.604;2023-08-21T07:12:05;102284.87;;;22.66;55.02
58739;BME280;44512;53.046;18.604;2023-08-21T07:22:32;102289.08;;;22.56;54.60
58739;BME280;44512;53.046;18.604;2023-08-21T07:33:01;102283.05;;;22.71;54.28
58739;BME280;44512;53.046;18.604;2023-08-21T07:43:29;102289.16;;;22.73;53.51
58739;BME280;44512;53.046;18.604;2023-08-21T07:53:57;102293.57;;;22.86;52.23
58739;BME280;44512;53.046;18.604;2023-08-21T08:04:26;102318.15;;;22.99;50.87
58739;BME280;44512;53.046;18.604;2023-08-21T08:14:54;102309.14;;;23.04;50.74
58739;BME280;44512;53.046;18.604;2023-08-21T08:25:23;102300.80;;;23.16;50.61
58739;BME280;44512;53.046;18.604;2023-08-21T08:35:51;102303.76;;;23.26;50.27
58739;BME280;44512;53.046;18.604;2023-08-21T08:46:19;102288.05;;;23.26;50.65
58739;BME280;44512;53.046;18.604;2023-08-21T08:56:47;102285.87;;;23.28;51.76
58739;BME280;44512;53.046;18.604;2023-08-21T09:07:17;102281.53;;;23.32;50.99
58739;BME280;44512;53.046;18.604;2023-08-21T09:17:52;102269.96;;;23.35;50.28
58739;BME280;44512;53.046;18.604;2023-08-21T09:28:13;102274.84;;;23.45;49.47
58739;BME280;44512;53.046;18.604;2023-08-21T09:38:45;102261.45;;;23.54;49.29
58739;BME280;44512;53.046;18.604;2023-08-21T09:49:09;102260.45;;;23.60;47.73
58739;BME280;44512;53.046;18.604;2023-08-21T09:59:38;102254.47;;;23.63;47.20
58739;BME280;44512;53.046;18.604;2023-08-21T10:10:06;102252.44;;;23.75;45.87
58739;BME280;44512;53.046;18.604;2023-08-21T10:20:36;102244.31;;;23.85;44.71
58739;BME280;44512;53.046;18.604;2023-08-21T10:41:30;102241.78;;;24.01;44.24
58739;BME280;44512;53.046;18.604;2023-08-21T10:56:40;102227.68;;;24.19;45.71
58739;BME280;44512;53.046;18.604;2023-08-21T11:07:08;102223.35;;;24.28;44.24
58739;BME280;44512;53.046;18.604;2023-08-21T11:17:37;102212.52;;;24.43;44.11
58739;BME280;44512;53.046;18.604;2023-08-21T11:28:05;102217.87;;;24.72;44.42
58739;BME280;44512;53.046;18.604;2023-08-21T11:38:33;102211.39;;;24.88;44.16
58739;BME280;44512;53.046;18.604;2023-08-21T11:49:02;102223.20;;;25.06;44.07
58739;BME280;44512;53.046;18.604;2023-08-21T11:59:30;102221.89;;;25.08;44.49
58739;BME280;44512;53.046;18.604;2023-08-21T12:09:59;102214.46;;;25.14;44.67
58739;BME280;44512;53.046;18.604;2023-08-21T12:20:27;102207.54;;;25.16;45.73
58739;BME280;44512;53.046;18.604;2023-08-21T12:30:55;102195.43;;;25.23;45.30
58739;BME280;44512;53.046;18.604;2023-08-21T12:41:23;102180.09;;;25.47;43.74
58739;BME280;44512;53.046;18.604;2023-08-21T12:51:52;102182.70;;;25.59;43.90
58739;BME280;44512;53.046;18.604;2023-08-21T13:02:20;102184.12;;;25.66;43.91
58739;BME280;44512;53.046;18.604;2023-08-21T13:12:48;102192.20;;;25.73;43.62
58739;BME280;44512;53.046;18.604;2023-08-21T13:23:17;102179.79;;;25.76;43.62
58739;BME280;44512;53.046;18.604;2023-08-21T13:33:49;102196.46;;;25.81;43.76
58739;BME280;44512;53.046;18.604;2023-08-21T13:44:13;102187.34;;;25.85;43.20
58739;BME280;44512;53.046;18.604;2023-08-21T13:54:42;102182.35;;;25.87;43.71
58739;BME280;44512;53.046;18.604;2023-08-21T14:05:10;102182.32;;;25.82;44.18
58739;BME280;44512;53.046;18.604;2023-08-21T14:15:38;102180.07;;;25.79;44.63
58739;BME280;44512;53.046;18.604;2023-08-21T14:26:07;102176.46;;;25.79;44.77
58739;BME280;44512;53.046;18.604;2023-08-21T14:36:35;102174.80;;;25.78;45.06
58739;BME280;44512;53.046;18.604;2023-08-21T14:47:03;102163.49;;;25.89;44.79
58739;BME280;44512;53.046;18.604;2023-08-21T14:57:36;102154.73;;;26.91;43.35
58739;BME280;44512;53.046;18.604;2023-08-21T15:08:05;102151.69;;;27.53;42.29
58739;BME280;44512;53.046;18.604;2023-08-21T15:18:33;102140.01;;;27.77;40.90
58739;BME280;44512;53.046;18.604;2023-08-21T15:29:01;102133.80;;;28.00;40.58
58739;BME280;44512;53.046;18.604;2023-08-21T15:39:30;102114.72;;;28.43;40.00
58739;BME280;44512;53.046;18.604;2023-08-21T15:49:58;102121.84;;;28.65;39.33
58739;BME280;44512;53.046;18.604;2023-08-21T16:00:26;102104.12;;;28.45;39.21
58739;BME280;44512;53.046;18.604;2023-08-21T16:10:55;102094.72;;;28.26;39.25
58739;BME280;44512;53.046;18.604;2023-08-21T16:21:23;102088.13;;;28.07;39.60
58739;BME280;44512;53.046;18.604;2023-08-21T16:31:55;102084.34;;;27.87;39.95
58739;BME280;44512;53.046;18.604;2023-08-21T16:42:23;102080.79;;;27.71;40.32
58739;BME280;44512;53.046;18.604;2023-08-21T16:52:52;102075.77;;;27.58;40.37
58739;BME280;44512;53.046;18.604;2023-08-21T17:03:20;102081.36;;;27.48;40.58
58739;BME280;44512;53.046;18.604;2023-08-21T17:13:48;102074.98;;;27.37;40.71
58739;BME280;44512;53.046;18.604;2023-08-21T17:24:17;102065.30;;;27.24;40.78
58739;BME280;44512;53.046;18.604;2023-08-21T17:34:45;102049.18;;;27.11;41.12
58739;BME280;44512;53.046;18.604;2023-08-21T17:45:13;102058.92;;;27.09;41.34
58739;BME280;44512;53.046;18.604;2023-08-21T17:55:42;102049.98;;;27.01;41.55
58739;BME280;44512;53.046;18.604;2023-08-21T18:06:10;102051.94;;;26.96;42.02
58739;BME280;44512;53.046;18.604;2023-08-21T18:16:38;102061.10;;;26.91;42.47
58739;BME280;44512;53.046;18.604;2023-08-21T18:27:06;102091.66;;;26.81;42.88
58739;BME280;44512;53.046;18.604;2023-08-21T18:37:35;102118.88;;;26.74;43.08
58739;BME280;44512;53.046;18.604;2023-08-21T18:48:04;102131.32;;;26.56;43.27
58739;BME280;44512;53.046;18.604;2023-08-21T18:58:31;102110.38;;;26.23;43.55
58739;BME280;44512;53.046;18.604;2023-08-21T19:09:00;102139.76;;;26.14;43.85
58739;BME280;44512;53.046;18.604;2023-08-21T19:19:28;102140.84;;;26.03;43.89
58739;BME280;44512;53.046;18.604;2023-08-21T19:29:56;102148.79;;;25.89;43.90
58739;BME280;44512;53.046;18.604;2023-08-21T19:40:25;102159.02;;;25.83;43.78
58739;BME280;44512;53.046;18.604;2023-08-21T19:50:57;102160.03;;;25.72;43.75
58739;BME280;44512;53.046;18.604;2023-08-21T20:01:21;102168.83;;;25.59;43.79
58739;BME280;44512;53.046;18.604;2023-08-21T20:11:50;102173.72;;;25.46;43.91
58739;BME280;44512;53.046;18.604;2023-08-21T20:22:18;102180.80;;;25.32;43.99
58739;BME280;44512;53.046;18.604;2023-08-21T20:32:46;102188.46;;;25.20;44.24
58739;BME280;44512;53.046;18.604;2023-08-21T20:43:15;102190.81;;;25.06;44.40
58739;BME280;44512;53.046;18.604;2023-08-21T20:53:43;102191.74;;;24.90;44.60
58739;BME280;44512;53.046;18.604;2023-08-21T21:04:11;102201.24;;;24.72;44.70
58739;BME280;44512;53.046;18.604;2023-08-21T21:14:40;102215.74;;;24.57;44.71
58739;BME280;44512;53.046;18.604;2023-08-21T21:25:08;102220.82;;;24.43;44.81
58739;BME280;44512;53.046;18.604;2023-08-21T21:35:36;102232.74;;;24.27;45.14
58739;BME280;44512;53.046;18.604;2023-08-21T21:46:08;102226.44;;;24.10;45.50
58739;BME280;44512;53.046;18.604;2023-08-21T21:56:33;102224.54;;;23.94;45.77
58739;BME280;44512;53.046;18.604;2023-08-21T22:07:01;102227.83;;;23.74;46.00
58739;BME280;44512;53.046;18.604;2023-08-21T22:17:30;102228.64;;;23.57;46.13
58739;BME280;44512;53.046;18.604;2023-08-21T22:27:58;102238.83;;;23.40;46.25
58739;BME280;44512;53.046;18.604;2023-08-21T22:38:26;102240.13;;;23.21;46.36
58739;BME280;44512;53.046;18.604;2023-08-21T22:48:55;102237.95;;;23.06;46.51
58739;BME280;44512;53.046;18.604;2023-08-21T22:59:23;102229.95;;;22.93;46.68
58739;BME280;44512;53.046;18.604;2023-08-21T23:09:51;102231.80;;;22.75;46.92
58739;BME280;44512;53.046;18.604;2023-08-21T23:20:20;102228.73;;;22.60;47.18
58739;BME280;44512;53.046;18.604;2023-08-21T23:30:48;102223.23;;;22.48;47.38
58739;BME280;44512;53.046;18.604;2023-08-21T23:41:16;102217.04;;;22.29;47.75
58739;BME280;44512;53.046;18.604;2023-08-21T23:51:45;102222.81;;;22.16;48.06
